createdAt,value
2018-05-26T00:01:40.183Z,99.90
2018-05-26T00:04:08.458Z,99.90
2018-05-26T00:06:38.213Z,99.90
2018-05-26T00:09:06.452Z,99.90
2018-05-26T00:11:34.744Z,99.90
2018-05-26T00:14:03.288Z,99.90
2018-05-26T00:16:31.535Z,99.90
2018-05-26T00:19:00.563Z,99.90
2018-05-26T00:21:28.798Z,99.90
2018-05-26T00:23:57.089Z,99.90
2018-05-26T00:26:25.315Z,99.90
2018-05-26T00:28:53.977Z,99.90
2018-05-26T00:33:51.734Z,99.90
2018-05-26T00:36:20.365Z,99.90
2018-05-26T00:38:48.643Z,99.90
2018-05-26T00:46:16.626Z,99.90
2018-05-26T00:48:44.872Z,99.90
2018-05-26T00:51:14.243Z,99.90
2018-05-26T00:53:42.525Z,99.90
2018-05-26T00:56:10.763Z,99.90
2018-05-26T00:58:39.040Z,99.90
2018-05-26T01:19:03.753Z,99.90
2018-05-26T01:24:03.757Z,99.90
2018-05-26T01:26:32.000Z,99.90
2018-05-26T01:31:30.154Z,99.90
2018-05-26T01:33:59.900Z,99.90
2018-05-26T01:36:28.142Z,99.90
2018-05-26T01:38:56.799Z,99.90
2018-05-26T01:41:26.613Z,99.90
2018-05-26T01:43:56.370Z,99.90
2018-05-26T01:48:55.539Z,99.90
2018-05-26T01:51:23.785Z,99.90
2018-05-26T01:53:52.063Z,99.90
2018-05-26T01:56:21.815Z,99.90
2018-05-26T01:58:50.049Z,99.90
2018-05-26T02:01:18.339Z,99.90
2018-05-26T02:03:46.579Z,99.90
2018-05-26T02:08:44.330Z,99.90
2018-05-26T02:11:14.085Z,99.90
2018-05-26T02:13:42.326Z,99.90
2018-05-26T02:16:10.606Z,99.90
2018-05-26T02:21:09.076Z,99.90
2018-05-26T02:23:38.491Z,99.90
2018-05-26T02:28:36.600Z,99.90
2018-05-26T02:31:04.960Z,99.90
2018-05-26T02:33:34.707Z,99.90
2018-05-26T02:36:02.957Z,99.90
2018-05-26T02:38:31.250Z,99.90
2018-05-26T02:43:29.347Z,99.90
2018-05-26T02:45:58.433Z,99.90
2018-05-26T02:48:28.198Z,99.90
2018-05-26T02:50:57.571Z,99.90
2018-05-26T02:55:56.475Z,99.90
2018-05-26T03:00:54.625Z,99.90
2018-05-26T03:03:23.996Z,99.90
2018-05-26T03:05:58.774Z,99.90
2018-05-26T03:08:34.215Z,99.90
2018-05-26T03:11:08.184Z,99.90
2018-05-26T03:13:42.172Z,99.90
2018-05-26T03:16:10.888Z,99.90
2018-05-26T03:18:39.127Z,99.90
2018-05-26T03:23:37.660Z,99.90
2018-05-26T03:26:05.895Z,99.90
2018-05-26T03:28:34.145Z,99.90
2018-05-26T03:31:03.196Z,99.90
2018-05-26T03:33:32.252Z,99.90
2018-05-26T03:36:01.627Z,99.90
2018-05-26T03:38:29.928Z,99.90
2018-05-26T03:40:58.177Z,99.90
2018-05-26T03:43:26.410Z,99.90
2018-05-26T03:45:54.679Z,99.90
2018-05-26T03:48:24.070Z,99.90
2018-05-26T03:50:52.340Z,99.90
2018-05-26T03:53:20.589Z,99.90
2018-05-26T03:56:00.784Z,99.90
2018-05-26T03:58:41.373Z,99.90
2018-05-26T04:01:09.655Z,99.90
2018-05-26T04:03:39.536Z,99.90
2018-05-26T04:06:09.012Z,99.90
2018-05-26T04:08:37.215Z,99.90
2018-05-26T04:11:05.457Z,99.90
2018-05-26T04:13:35.243Z,99.90
2018-05-26T04:16:03.487Z,99.90
2018-05-26T04:21:01.662Z,99.90
2018-05-26T04:23:30.667Z,99.90
2018-05-26T04:25:59.671Z,99.90
2018-05-26T04:28:28.719Z,99.90
2018-05-26T04:30:56.970Z,99.90
2018-05-26T04:33:26.175Z,99.90
2018-05-26T04:35:54.470Z,99.90
2018-05-26T04:38:22.707Z,99.90
2018-05-26T04:40:51.208Z,99.90
2018-05-26T04:43:19.583Z,99.90
2018-05-26T04:45:48.597Z,99.90
2018-05-26T04:48:17.419Z,99.90
2018-05-26T04:50:46.849Z,99.90
2018-05-26T04:53:15.084Z,99.90
2018-05-26T04:58:13.258Z,99.90
2018-05-26T05:00:41.495Z,99.90
2018-05-26T05:03:09.744Z,99.90
2018-05-26T05:08:07.887Z,99.90
2018-05-26T05:10:37.645Z,99.90
2018-05-26T05:13:05.919Z,99.90
2018-05-26T05:15:34.926Z,99.90
2018-05-26T05:18:04.308Z,99.90
2018-05-26T05:23:02.450Z,99.90
2018-05-26T05:25:30.691Z,99.90
2018-05-26T05:27:58.959Z,99.90
2018-05-26T05:30:27.212Z,99.90
2018-05-26T05:32:57.019Z,99.90
2018-05-26T05:35:25.383Z,99.90
2018-05-26T05:37:53.641Z,99.90
2018-05-26T05:40:21.954Z,99.90
2018-05-26T05:42:51.329Z,99.90
2018-05-26T05:45:19.571Z,99.90
2018-05-26T05:47:47.887Z,99.90
2018-05-26T05:50:17.654Z,99.90
2018-05-26T05:52:45.896Z,99.90
2018-05-26T05:55:14.171Z,99.90
2018-05-26T05:57:42.456Z,99.90
2018-05-26T06:00:11.092Z,99.90
2018-05-26T06:02:39.331Z,99.90
2018-05-26T06:05:08.404Z,99.90
2018-05-26T06:07:36.639Z,99.90
2018-05-26T06:15:04.710Z,99.90
2018-05-26T06:17:32.919Z,99.90
2018-05-26T06:20:01.230Z,99.90
2018-05-26T06:22:29.468Z,99.90
2018-05-26T06:24:57.691Z,99.90
2018-05-26T06:27:25.958Z,99.90
2018-05-26T06:29:55.341Z,99.90
2018-05-26T06:32:23.634Z,99.90
2018-05-26T06:34:51.852Z,99.90
2018-05-26T06:37:20.166Z,99.90
2018-05-26T06:39:48.469Z,99.90
2018-05-26T06:42:16.696Z,99.90
2018-05-26T06:52:13.373Z,99.90
2018-05-26T06:54:42.421Z,99.90
2018-05-26T06:57:11.039Z,99.90
2018-05-26T06:59:39.266Z,99.90
2018-05-26T07:02:07.740Z,99.90
2018-05-26T07:04:35.963Z,99.90
2018-05-26T07:07:04.955Z,99.90
2018-05-26T07:09:34.002Z,99.90
2018-05-26T07:12:02.227Z,99.90
2018-05-26T07:14:31.977Z,99.90
2018-05-26T07:17:00.708Z,99.90
2018-05-26T07:19:29.717Z,99.90
2018-05-26T07:21:58.707Z,99.90
2018-05-26T07:24:28.136Z,99.90
2018-05-26T07:26:56.356Z,99.90
2018-05-26T07:29:24.597Z,99.90
2018-05-26T07:31:53.247Z,99.90
2018-05-26T07:34:22.290Z,99.90
2018-05-26T07:36:50.874Z,99.90
2018-05-26T07:39:20.472Z,99.90
2018-05-26T07:41:48.700Z,99.90
2018-05-26T07:44:16.947Z,99.90
2018-05-26T07:46:45.626Z,99.90
2018-05-26T07:49:13.847Z,99.90
2018-05-26T07:51:43.359Z,99.90
2018-05-26T07:54:11.664Z,99.90
2018-05-26T07:56:40.289Z,99.90
2018-05-26T07:59:09.317Z,99.90
2018-05-26T08:01:38.374Z,99.90
2018-05-26T08:04:06.642Z,99.90
2018-05-26T08:06:35.619Z,99.90
2018-05-26T08:11:38.694Z,99.90
2018-05-26T08:14:07.000Z,99.90
2018-05-26T08:16:35.288Z,99.90
2018-05-26T08:19:05.086Z,99.90
2018-05-26T08:21:33.351Z,99.90
2018-05-26T08:24:03.368Z,99.90
2018-05-26T08:26:33.150Z,99.90
2018-05-26T08:29:01.543Z,99.90
2018-05-26T08:34:00.958Z,99.90
2018-05-26T08:36:29.532Z,99.90
2018-05-26T08:38:59.259Z,99.90
2018-05-26T08:41:28.289Z,99.90
2018-05-26T08:46:25.962Z,99.90
2018-05-26T08:48:54.644Z,99.90
2018-05-26T08:51:23.639Z,99.90
2018-05-26T08:56:21.902Z,99.90
2018-05-26T08:58:50.135Z,99.90
2018-05-26T09:01:19.128Z,99.90
2018-05-26T09:03:49.084Z,99.90
2018-05-26T09:06:17.353Z,99.90
2018-05-26T09:08:47.073Z,99.90
2018-05-26T09:11:16.909Z,99.90
2018-05-26T09:13:45.634Z,99.90
2018-05-26T09:16:14.987Z,99.90
2018-05-26T09:18:44.103Z,99.90
2018-05-26T09:23:41.706Z,99.90
2018-05-26T09:26:11.490Z,99.90
2018-05-26T09:28:39.707Z,99.90
2018-05-26T09:31:08.032Z,99.90
2018-05-26T09:33:37.773Z,99.90
2018-05-26T09:36:06.403Z,99.90
2018-05-26T09:38:34.727Z,99.90
2018-05-26T09:41:02.995Z,99.90
2018-05-26T09:43:32.005Z,99.90
2018-05-26T09:46:00.310Z,99.90
2018-05-26T09:48:29.322Z,99.90
2018-05-26T09:50:58.363Z,99.90
2018-05-26T09:53:27.003Z,99.90
2018-05-26T09:55:55.273Z,99.90
2018-05-26T09:58:24.663Z,99.90
2018-05-26T10:00:52.940Z,99.90
2018-05-26T10:05:51.092Z,99.90
2018-05-26T10:08:19.365Z,99.90
2018-05-26T10:10:47.820Z,99.90
2018-05-26T10:13:16.048Z,99.90
2018-05-26T10:24:06.872Z,99.90
2018-05-26T10:31:39.915Z,99.90
2018-05-26T10:41:36.535Z,99.90
2018-05-26T10:44:04.759Z,99.90
2018-05-26T10:46:33.879Z,99.90
2018-05-26T10:49:02.906Z,99.90
2018-05-26T10:51:31.135Z,99.70
2018-05-26T10:53:59.402Z,99.90
2018-05-26T10:56:27.667Z,99.90
2018-05-26T10:58:55.891Z,98.70
2018-05-26T11:03:53.654Z,98.30
2018-05-26T11:06:21.883Z,97.50
2018-05-26T11:11:20.611Z,97.60
2018-05-26T11:13:50.107Z,98.70
2018-05-26T11:18:48.266Z,97.90
2018-05-26T11:26:15.563Z,97.10
2018-05-26T11:28:43.779Z,97.10
2018-05-26T11:36:11.403Z,95.40
2018-05-26T11:41:09.227Z,94.40
2018-05-26T11:43:38.243Z,94.00
2018-05-26T11:46:07.995Z,94.90
2018-05-26T11:48:36.224Z,94.20
2018-05-26T11:51:04.500Z,95.10
2018-05-26T11:53:32.718Z,93.00
2018-05-26T11:56:00.951Z,92.60
2018-05-26T11:58:30.808Z,93.90
2018-05-26T12:00:59.019Z,92.90
2018-05-26T12:03:27.304Z,92.00
2018-05-26T12:08:24.971Z,92.90
2018-05-26T12:10:53.306Z,87.20
2018-05-26T12:13:22.634Z,90.60
2018-05-26T12:18:22.025Z,90.20
2018-05-26T12:23:21.710Z,87.90
2018-05-26T12:28:20.199Z,87.40
2018-05-26T12:30:48.495Z,90.00
2018-05-26T12:33:17.930Z,89.50
2018-05-26T12:35:46.159Z,88.40
2018-05-26T12:40:44.402Z,87.80
2018-05-26T12:43:14.219Z,83.80
2018-05-26T12:45:42.831Z,86.10
2018-05-26T12:48:11.112Z,86.70
2018-05-26T12:50:39.334Z,85.90
2018-05-26T12:53:07.586Z,84.60
2018-05-26T12:58:06.810Z,86.00
2018-05-26T13:00:35.807Z,87.00
2018-05-26T13:03:05.252Z,85.30
2018-05-26T13:08:26.143Z,88.70
2018-05-26T13:10:55.874Z,86.50
2018-05-26T13:18:24.571Z,88.00
2018-05-26T13:23:22.339Z,86.70
2018-05-26T13:25:52.075Z,87.90
2018-05-26T13:28:20.699Z,89.50
2018-05-26T13:35:49.487Z,91.60
2018-05-26T13:38:18.206Z,91.70
2018-05-26T13:40:46.827Z,91.70
2018-05-26T13:43:15.450Z,91.60
2018-05-26T13:45:44.867Z,91.30
2018-05-26T13:48:13.090Z,91.20
2018-05-26T13:50:42.083Z,91.20
2018-05-26T13:55:39.811Z,90.60
2018-05-26T13:58:08.071Z,91.40
2018-05-26T14:03:06.564Z,89.60
2018-05-26T14:05:34.837Z,91.20
2018-05-26T14:08:09.291Z,90.10
2018-05-26T14:10:38.287Z,89.30
2018-05-26T14:13:06.911Z,89.70
2018-05-26T14:15:35.231Z,89.00
2018-05-26T14:20:33.301Z,90.10
2018-05-26T14:25:31.030Z,88.20
2018-05-26T14:30:29.154Z,90.20
2018-05-26T14:32:58.975Z,91.00
2018-05-26T14:35:27.593Z,90.30
2018-05-26T14:40:25.314Z,90.20
2018-05-26T14:42:53.544Z,91.20
2018-05-26T14:45:22.218Z,91.40
2018-05-26T14:47:50.448Z,92.10
2018-05-26T14:50:18.671Z,91.20
2018-05-26T14:52:48.719Z,91.80
2018-05-26T14:55:16.947Z,91.00
2018-05-26T14:57:46.312Z,90.50
2018-05-26T15:02:44.536Z,91.00
2018-05-26T15:05:12.759Z,90.10
2018-05-26T15:10:12.479Z,90.40
2018-05-26T15:12:40.725Z,90.50
2018-05-26T15:15:09.007Z,90.60
2018-05-26T15:20:07.099Z,91.20
2018-05-26T15:22:35.707Z,91.30
2018-05-26T15:25:03.970Z,92.10
2018-05-26T15:27:32.603Z,90.70
2018-05-26T15:30:02.028Z,90.70
2018-05-26T15:32:31.758Z,91.20
2018-05-26T15:35:00.752Z,91.60
2018-05-26T15:37:29.221Z,91.20
2018-05-26T15:39:58.224Z,91.00
2018-05-26T15:42:26.458Z,91.20
2018-05-26T15:44:54.736Z,91.60
2018-05-26T15:47:22.942Z,91.40
2018-05-26T15:49:51.168Z,91.90
2018-05-26T15:54:52.857Z,91.70
2018-05-26T15:57:21.078Z,91.60
2018-05-26T15:59:50.724Z,91.90
2018-05-26T16:02:18.939Z,91.80
2018-05-26T16:04:47.562Z,91.50
2018-05-26T16:07:17.344Z,91.90
2018-05-26T16:12:17.702Z,93.10
2018-05-26T16:14:46.690Z,92.30
2018-05-26T16:19:44.806Z,92.90
2018-05-26T16:22:14.168Z,93.20
2018-05-26T16:24:43.158Z,93.40
2018-05-26T16:27:12.474Z,92.50
2018-05-26T16:32:10.545Z,92.00
2018-05-26T16:37:14.607Z,92.40
2018-05-26T16:39:42.827Z,92.80
2018-05-26T16:42:11.103Z,93.40
2018-05-26T16:47:09.162Z,93.50
2018-05-26T16:49:37.538Z,91.40
2018-05-26T16:52:05.770Z,92.00
2018-05-26T16:57:03.483Z,92.60
2018-05-26T16:59:31.719Z,93.10
2018-05-26T17:02:00.707Z,93.00
2018-05-26T17:04:28.983Z,93.00
2018-05-26T17:06:58.346Z,93.40
2018-05-26T17:09:28.092Z,94.50
2018-05-26T17:11:57.219Z,94.80
2018-05-26T17:14:28.698Z,94.10
2018-05-26T17:16:58.743Z,93.70
2018-05-26T17:19:26.971Z,94.00
2018-05-26T17:21:55.195Z,94.10
2018-05-26T17:24:23.863Z,93.70
2018-05-26T17:26:52.854Z,93.60
2018-05-26T17:29:21.080Z,93.90
2018-05-26T17:31:51.895Z,94.00
2018-05-26T17:36:50.339Z,94.30
2018-05-26T17:39:19.399Z,93.90
2018-05-26T17:41:47.627Z,94.10
2018-05-26T17:44:15.864Z,93.60
2018-05-26T17:46:44.927Z,94.00
2018-05-26T17:49:13.911Z,94.00
2018-05-26T17:51:42.911Z,93.90
2018-05-26T17:54:13.068Z,93.80
2018-05-26T17:56:41.300Z,93.20
2018-05-26T17:59:11.030Z,93.20
2018-05-26T18:01:40.779Z,93.10
2018-05-26T18:06:38.855Z,92.60
2018-05-26T18:09:07.883Z,92.60
2018-05-26T18:11:36.875Z,91.60
2018-05-26T18:14:05.913Z,92.00
2018-05-26T18:19:05.455Z,91.60
2018-05-26T18:21:33.683Z,92.40
2018-05-26T18:29:01.624Z,92.60
2018-05-26T18:34:00.115Z,93.50
2018-05-26T18:36:28.338Z,93.20
2018-05-26T18:38:56.598Z,93.00
2018-05-26T18:41:26.335Z,93.10
2018-05-26T18:43:55.329Z,93.10
2018-05-26T18:46:24.741Z,92.90
2018-05-26T18:48:52.963Z,93.00
2018-05-26T18:51:21.579Z,93.80
2018-05-26T18:53:51.050Z,93.80
2018-05-26T18:56:19.279Z,93.80
2018-05-26T18:58:47.514Z,93.80
2018-05-26T19:03:45.408Z,93.30
2018-05-26T19:06:13.633Z,93.40
2018-05-26T19:08:41.923Z,93.30
2018-05-26T19:11:10.560Z,93.50
2018-05-26T19:13:40.283Z,94.20
2018-05-26T19:16:13.125Z,94.00
2018-05-26T19:21:11.044Z,94.20
2018-05-26T19:23:40.147Z,94.40
2018-05-26T19:26:08.383Z,94.30
2018-05-26T19:31:07.236Z,94.80
2018-05-26T19:33:36.599Z,94.60
2018-05-26T19:36:04.827Z,94.50
2018-05-26T19:38:33.477Z,94.60
2018-05-26T19:41:03.215Z,94.70
2018-05-26T19:43:31.444Z,94.70
2018-05-26T19:48:31.063Z,95.00
2018-05-26T19:51:00.060Z,94.70
2018-05-26T19:53:28.710Z,94.70
2018-05-26T19:55:57.703Z,94.40
2018-05-26T19:58:25.940Z,94.60
2018-05-26T20:00:54.543Z,94.80
2018-05-26T20:03:23.906Z,94.90
2018-05-26T20:05:52.905Z,95.00
2018-05-26T20:08:22.796Z,95.20
2018-05-26T20:10:51.040Z,95.30
2018-05-26T20:13:20.392Z,95.40
2018-05-26T20:15:48.692Z,95.20
2018-05-26T20:18:16.940Z,95.50
2018-05-26T20:20:46.795Z,95.60
2018-05-26T20:23:16.187Z,95.80
2018-05-26T20:25:45.183Z,95.70
2018-05-26T20:28:14.937Z,95.60
2018-05-26T20:30:44.435Z,96.00
2018-05-26T20:33:14.163Z,96.20
2018-05-26T20:35:43.532Z,96.30
2018-05-26T20:38:11.795Z,96.50
2018-05-26T20:40:41.527Z,96.50
2018-05-26T20:43:10.518Z,96.90
2018-05-26T20:45:39.099Z,96.90
2018-05-26T20:48:08.099Z,96.70
2018-05-26T20:50:36.328Z,96.90
2018-05-26T20:53:04.983Z,96.70
2018-05-26T20:55:34.342Z,96.80
2018-05-26T20:58:02.570Z,97.30
2018-05-26T21:00:33.388Z,97.00
2018-05-26T21:03:01.620Z,97.00
2018-05-26T21:05:30.612Z,97.10
2018-05-26T21:07:59.516Z,97.50
2018-05-26T21:10:29.252Z,98.40
2018-05-26T21:12:58.988Z,99.10
2018-05-26T21:15:28.023Z,99.40
2018-05-26T21:17:57.382Z,99.20
2018-05-26T21:20:25.607Z,99.30
2018-05-26T21:22:57.843Z,99.00
2018-05-26T21:25:27.585Z,98.60
2018-05-26T21:27:56.597Z,98.90
2018-05-26T21:30:24.863Z,99.10
2018-05-26T21:32:54.595Z,99.70
2018-05-26T21:35:22.826Z,99.20
2018-05-26T21:37:52.367Z,99.20
2018-05-26T21:40:20.991Z,99.20
2018-05-26T21:42:49.223Z,99.10
2018-05-26T21:45:17.787Z,99.30
2018-05-26T21:47:46.788Z,99.80
2018-05-26T21:50:15.019Z,99.90
2018-05-26T21:52:43.484Z,99.90
2018-05-26T21:55:11.711Z,99.90
2018-05-26T21:57:41.076Z,99.80
2018-05-26T22:00:09.360Z,99.90
2018-05-26T22:02:37.591Z,99.90
2018-05-26T22:05:06.051Z,99.90
2018-05-26T22:07:35.851Z,99.90
2018-05-26T22:10:04.071Z,99.90
2018-05-26T22:12:33.813Z,99.90
2018-05-26T22:15:03.559Z,99.90
2018-05-26T22:17:32.183Z,99.90
2018-05-26T22:20:00.420Z,99.90
2018-05-26T22:22:28.831Z,99.90
2018-05-26T22:24:57.083Z,99.90
2018-05-26T22:27:25.327Z,99.90
2018-05-26T22:29:54.530Z,99.90
2018-05-26T22:34:52.616Z,99.90
2018-05-26T22:37:22.838Z,99.90
2018-05-26T22:39:51.067Z,99.90
2018-05-26T22:42:20.076Z,99.90
2018-05-26T22:44:50.360Z,99.90
2018-05-26T22:47:19.358Z,99.90
2018-05-26T22:49:48.351Z,99.90
2018-05-26T22:52:17.103Z,99.90
2018-05-26T22:54:45.727Z,99.90
2018-05-26T22:57:13.959Z,99.90
2018-05-26T22:59:42.222Z,99.90
2018-05-26T23:02:10.451Z,99.90
2018-05-26T23:04:38.681Z,99.90
2018-05-26T23:07:07.571Z,99.90
2018-05-26T23:09:36.155Z,99.90
2018-05-26T23:12:04.386Z,99.90
2018-05-26T23:14:32.847Z,99.90
2018-05-26T23:17:02.583Z,99.90
2018-05-26T23:19:31.575Z,99.90
2018-05-26T23:22:00.054Z,99.90
2018-05-26T23:24:29.048Z,99.90
2018-05-26T23:29:30.867Z,99.90
2018-05-26T23:31:59.487Z,99.90
2018-05-26T23:34:27.719Z,99.90
2018-05-26T23:36:55.991Z,99.90
2018-05-26T23:39:24.227Z,99.90
2018-05-26T23:41:52.460Z,99.90
2018-05-26T23:44:22.104Z,99.90
2018-05-26T23:46:51.844Z,99.90
2018-05-26T23:49:20.075Z,99.90
2018-05-26T23:51:48.374Z,99.90
2018-05-26T23:54:16.603Z,99.90
2018-05-26T23:56:44.840Z,99.90
2018-05-26T23:59:14.723Z,99.90
